메인 페이지
METAR-TAF:

METAR-TAF

공항 :

파루, 포르투갈

위도: 37-01N, 경도: 007-58W, 고도: 7m

현재 날씨관측

예보는 15분 전, 09:00시(UTC)에 발표되었습니다.
7kt
온도 21°C
습도 88%
기압 1011 hPa
시정 10km 이상
고도 900ft 상공 구름 보통
고도 2000ft 상공 구름 조금, 적란운.
고도 2400ft 상공 구름 많음

METAR: LPFR 040900Z 26007KT 9999 SCT009 FEW020CB BKN024 21/19 Q1011

시각: 10:15 (09:15 UTC)

예보

예보는 4 시간 15분 전, 05:00시(UTC)에 발표되었습니다.
예보 대상 시간: 04일 06시부터 05일 06시까지 (UTC)
서남서7kt
시정 10km 이상
고도 1500ft 상공 구름 조금
고도 2500ft 상공 구름 많음
일시적
04일 06시부터 04일 12시까지 (UTC)
시정: 5000m
고도 1200ft 상공 구름 많음
고도 1800ft 상공 구름 조금, 타워링 적운.
전환 중
04일 12시부터 04일 15시까지 (UTC)
서남서13kt
고도 2500ft 상공 구름 보통
전환 중
04일 20시부터 04일 23시까지 (UTC)
서북서8kt
시정 10km 이상
1500m 미만 상공 구름 및 적란운 없음
전환 중
05일 02시부터 05일 05시까지 (UTC)
여러 방향의 바람 2kt

TAF: LPFR 040500Z 0406/0506 25007KT 9999 FEW015 BKN025 TEMPO 0406/0412 5000 RA BKN012 FEW018TCU BECMG 0412/0415 25013KT SCT025 BECMG 0420/0423 30008KT CAVOK BECMG 0502/0505 VRB02KT

4,000개 이상의 공항 관측 자료 및 예보 (METAR 및 TAF 보고).

지도상에서 검색 가능한 기상관측소가 노란 점과 빨간 점으로 표시되어 있습니다.

기상관측소 명을 보려면 표시 위로 마우스를 이동하세요.

날씨 관측과 예보를 보려면 클릭하세요.

지도 변경 : 확대하려면 엑스 표시가 있는 녹색 버튼, 축소하려면 빼기 표시가 있는 녹색 버튼, 다음 페이지의 지도를 보려면 녹색 화살표를 클릭하세요.


METAR-TAF: